EFHK

Helsinki Vantaa Airport

Helsinki, Finland
METAR EFHK 191950Z 21009KT CAVOK 14/10 Q1003 NOSIG
Observed Flight Rules
Jun-19 @ 19:50 UTC (21 minutes ago) Visual Flight Rules
Wind Visibility Clouds
210° at 9 knots 10,000+ meters
  • Clear skies
Temperatures Readings
Current 14°C / 57°F
Dewpoint 10°C / 50°F
Humidity 77%
Altimeter 29.62" Hg
Pressure 1003 hPa
Elevation 56
METAR EFHK 191950Z 21009KT CAVOK 14/10 Q1003 NOSIG
Observed Flight Rules
Jun-19 @ 19:50 UTC
(21 minutes ago)
VFR
Wind Visibility
210° at 9 knots 10,000+ meters
Clouds
  • Clear skies
Temperature Dewpoint
14°C / 57°F 10°C / 50°F
Humidity Altimeter Pressure
77% 29.62" Hg 1003 hPa